Airfield :
LOGIN :

Register | Disclaimer

   EN    FR    IT 

 










Legend :    VFR   Marginal VFR   IFR   Intensive IFR   Very Intensive IFR
Visi :
Ceiling :
>= 8 km
>= 3000ft
5 to 8 km
1000 to 3000 ft
1500m to 5 km
500 to 1000 ft
800 to 1500m
200 to 500 ft
< 800m
< 200 ft
Symbols :   Thunderstorms  Fog  Heavy snow  Heavy precipitations  Wind > 20 kt
SIGMETs :     Misc.  Thunderstorms  Icing  Turbulence  Mountain Waves  Volcanic Ashes







- Airport Elevation : 1197 ft
- IATA code : SPM


ETAD - Spangdahlem Ab

CURRENT METAR :
  • 300058Z AUTO 27005KT 9999 OVC150 19/16 A2994 RMK AO2 SLP110 T01900159 $

EXPIRED METARs :
  • 292358Z AUTO 26004KT 9999 FEW120 BKN150 19/16 A2993 RMK AO2 SLP107 T01920164 10261 20192 53002 $
  • 292258Z AUTO 00000KT 9999 CLR 20/16 A2993 RMK AO2 SLP107 T02030158 403090153 $

TAF TAF ETAD
Valid from the 29 at 19:00 until the 31 at 01:00 UTC


291915Z 2919/3101 20009KT 9999 SKC QNH2985INS
BECMG 3007/3008 22009KT 9999 BKN030 QNH2992INS TX25/3013Z TN14/3004Z
No reported NOTAMs for that airfield.
1 SIGMET reported for the Langen FIR (EDGG) :
 
Embedded thunderstorms
EDGG SIGMET 1 VALID 292245/300230 EDZF
EDGG LANGEN FIR EMBD TS OBS WI N5003 E00916 - N4951 E01022 - N4750 E00843 - N4747 E00737 - N4916 E00825 - N5003 E00916 TOP FL360 MOV NE NC=



MET'MAP, your aeronautical weather chart ! - Copyright ORBIFLY December 2007 - Disclaimer

ORBIFLY MET'MAP TEAM :

Programming & Development : Alexandra Zaïnal
Concept & Development : Baudouin d'Aumeries
Co-Development & Prog : Marc-Olivier Méhu
Technical & hardware support : Manuel Goepfert

Contact : metmap@orbifly.com




SOURCES & CREDITS :

   NOAA